Air Resources Laboratory banner image
Air Resources Laboratory web site National Oceanic and Atmospheric Administration (NOAA)

va metar


KAKQ 210754Z AUTO 00000KT 10SM FEW009 23/23 A3001 RMK AO2 SLP162 T02330228=
KAKQ 210806Z AUTO 00000KT 10SM BKN009 24/23 A3001 RMK AO2 T02390228=
KAVC 210755Z AUTO 00000KT 1/2SM OVC001 22/22 A3007 RMK AO2 T02190219=
KBCB 210755Z AUTO 00000KT 5SM BR SCT008 BKN045 OVC060 21/21 A3010 RMK AO2
 T02100210=
KCHO 210753Z AUTO 16006KT 10SM OVC006 24/22 A3002 RMK AO2 SLP158 T02390217=
KCJR 210755Z AUTO 11003KT 10SM OVC008 24/22 A3003 RMK AO2 T02360220=
KCPK 210755Z AUTO 06003KT 1/4SM FG OVC002 23/22 A3002 RMK AO2 T02270221=
KDAA 210756Z AUTO 12004KT 10SM OVC019 23/21 A3004 RMK AO2 SLP175 T02330210 $=
KDAN 210753Z AUTO 00000KT 1/2SM FG VV002 23/23 A3001 RMK AO2 SLP153 T02280228=
KDCA 210752Z 10005KT 10SM SCT022 OVC027 24/21 A3005 RMK AO2 SLP174 T02440206=
KEZF 210755Z AUTO 00000KT 10SM OVC011 24/24 A3002 RMK AO2 T02360236=
KFAF 210756Z AUTO 10004KT 10SM SCT017 SCT044 25/23 A2999 RMK AO2 SLP159
 T02480232 $=
KFKN 210755Z AUTO 00000KT 3/4SM BR OVC002 23/23 A3002 RMK AO2 T02290225=
KFVX 210755Z AUTO 00000KT 1 1/4SM BR OVC002 23/23 A3000 RMK AO2 T02330230=
KHEF 210756Z AUTO 12007KT 10SM OVC014 23/21 A3004 RMK AO2 SLP180 T02280211 PNO
 $=
KHLX 210755Z AUTO 16003KT 4SM BR BKN005 BKN012 20/20 A3008 RMK AO2 T02000195=
KHSP 210755Z AUTO 14004KT M1/4SM +DZ OVC001 20/20 A3015 RMK AO2 T01950195=
KIAD 210752Z 12005KT 10SM FEW015 BKN020 OVC035 23/21 A3004 RMK SLP170 T02280211=
KJYO 210755Z AUTO 12005KT 10SM OVC012 22/21 A3005 RMK AO2=
KLFI 210756Z 11008KT 10SM BKN013 OVC030 26/24 A3002 RMK AO2A OVC V BKN SLP172
 T02590243 $=
KLKU 210755Z AUTO 11005KT 10SM OVC005 22/22 A3006 RMK AO2 T02250220=
KLNP 210750Z AUTO 17004KT 10SM CLR 22/22 A3006 RMK AO2=
KLYH 210754Z AUTO 00000KT 7SM OVC003 22/22 A3003 RMK AO2 RAB35E53 SLP160 P0000
 T02220217=
KMFV 210755Z AUTO 10004KT 10SM BKN045 BKN060 OVC075 25/23 A3003 RMK AO2
 T02450229=
KMKJ 210755Z AUTO 00000KT 7SM OVC006 21/M10 A3010 RMK AO2 T02101096=
KMTV 210756Z AUTO 00000KT 3SM BR OVC004 22/22 A3005 RMK AO2=
KNGU 210759Z 13005KT 10SM FEW040 BKN065 BKN250 25/23 A3003 RMK AO2 SLP167
 T02500233=
KNTU 210756Z 12005KT 10SM SCT060 25/24 A3001 RMK AO2 SLP163 T02500244=
KNYG 210756Z AUTO 10006KT 10SM FEW026 BKN034 OVC070 23/22 A3004 RMK AO2 SLP173
 T02280222 $=
KOFP 210754Z AUTO 00000KT 8SM BKN004 OVC018 23/23 A3003 RMK AO2 SLP165
 T02330233=
KOKV 210755Z AUTO 11006KT 5SM RA OVC008 21/20 A3005 RMK AO2 P0001=
KOMH 210755Z AUTO 10005KT 10SM OVC006 22/21 A3002 RMK AO2=
KORF 210751Z 13006KT 10SM FEW015 SCT031 26/24 A3001 RMK AO2 SLP163 T02560239=
KPHF 210754Z AUTO 10005KT 10SM SCT015 BKN021 25/23 A3002 RMK AO2 SLP163
 T02500233=
KPSK 210750Z AUTO 07003KT 4SM BR OVC003 21/21 A3008 RMK AO2 T02120210=
KPTB 210755Z AUTO 00000KT 10SM OVC010 24/22 A3002 RMK AO2 T02350220=
KRIC 210754Z 09003KT 10SM FEW005 OVC016 24/23 A3001 RMK AO2 SLP166 T02390228=
KROA 210754Z 14006KT 9SM OVC006 22/22 A3005 RMK AO2 RAB17E27 SLP164 P0000
 T02220217=
KSFQ 210755Z AUTO 00000KT 1/2SM FG OVC002 24/24 A3003 RMK AO2 T02360235=
KSHD 210755Z AUTO 00000KT 10SM SCT022 BKN027 OVC048 21/21 A3005 RMK AO2
 T02110207=
KVJI 210755Z AUTO 00000KT 10SM BKN030 21/21 A3005 RMK AO2 T02110211=
KWAL 210754Z AUTO 09007KT 9SM FEW019 24/23 A3005 RMK AO2 SLP173 T02440228 TSNO=